Time;durP1;ratioP1;P1;durP2;ratioP2;P2;SDS_P1;SDS_P2;PMS_P1;PMS_P2;Temp;Humidity;BMP_temperature;BMP_pressure;BME280_temperature;BME280_humidity;BME280_pressure;Samples;Min_cycle;Max_cycle;Signal;HPM_P1;HPM_P2
2023/04/17 00:09:51;;;;;;;;;;;;;;;7.54;100.00;98127.13;18294723;32;19945;-57
2023/04/17 00:19:54;;;;;;;;;;;;;;;7.49;100.00;98125.16;18303256;32;19997;-57
2023/04/17 00:29:56;;;;;;;;;;;;;;;7.47;100.00;98117.31;18302537;32;20327;-57
2023/04/17 00:39:58;;;;;;;;;;;;;;;7.46;100.00;98114.88;18301911;32;20001;-56
2023/04/17 00:50:01;;;;;;;;;;;;;;;7.46;100.00;98098.72;18301530;32;19946;-57
2023/04/17 01:00:04;;;;;;;;;;;;;;;7.45;100.00;98087.16;18301147;32;19957;-56
2023/04/17 01:10:07;;;;;;;;;;;;;;;7.44;100.00;98082.81;18300752;32;20433;-56
2023/04/17 01:20:10;;;;;;;;;;;;;;;7.44;100.00;98077.44;18299478;32;20000;-56
2023/04/17 01:30:13;;;;;;;;;;;;;;;7.45;100.00;98071.00;18286385;32;20333;-57
2023/04/17 01:40:15;;;;;;;;;;;;;;;7.45;100.00;98068.31;18286005;32;19949;-57
2023/04/17 01:50:17;;;;;;;;;;;;;;;7.44;100.00;98072.06;18284759;32;20048;-56
2023/04/17 02:00:19;;;;;;;;;;;;;;;7.45;100.00;98076.41;18298077;32;19945;-57
2023/04/17 02:10:22;;;;;;;;;;;;;;;7.47;100.00;98076.94;18297776;32;20001;-57
2023/04/17 02:20:24;;;;;;;;;;;;;;;7.54;100.00;98051.78;18297321;32;19994;-56
2023/04/17 02:30:27;;;;;;;;;;;;;;;7.54;100.00;98049.09;18296880;32;20274;-57
2023/04/17 02:40:29;;;;;;;;;;;;;;;7.55;100.00;98045.31;18295700;32;20009;-57
2023/04/17 02:50:31;;;;;;;;;;;;;;;7.56;100.00;98046.97;18281839;32;20000;-57
2023/04/17 03:00:33;;;;;;;;;;;;;;;7.56;100.00;98046.97;18295814;32;19968;-57
2023/04/17 03:10:36;;;;;;;;;;;;;;;7.55;100.00;98048.84;18295089;32;20271;-57
2023/04/17 03:20:38;;;;;;;;;;;;;;;7.55;100.00;98039.94;18294683;32;19945;-56
2023/04/17 03:30:40;;;;;;;;;;;;;;;7.58;100.00;98042.19;18280413;32;19971;-57
2023/04/17 03:40:43;;;;;;;;;;;;;;;7.58;100.00;98034.09;18294252;32;19949;-56
2023/04/17 03:50:45;;;;;;;;;;;;;;;7.58;100.00;98034.09;18302294;32;19980;-57
2023/04/17 04:00:48;;;;;;;;;;;;;;;7.62;100.00;98046.03;18304196;32;20000;-57
2023/04/17 04:10:51;;;;;;;;;;;;;;;7.64;100.00;98050.06;18303596;32;19972;-56
2023/04/17 04:20:53;;;;;;;;;;;;;;;7.65;100.00;98050.91;18303367;32;19945;-57
2023/04/17 04:30:57;;;;;;;;;;;;;;;7.63;100.00;98047.63;18302652;32;19974;-57
2023/04/17 04:41:04;;;;;;;;;;;;;;;7.62;100.00;98046.03;18301756;32;20004;-57
2023/04/17 04:51:07;;;;;;;;;;;;;;;7.68;100.00;98047.72;18301799;32;20439;-57
2023/04/17 05:01:10;;;;;;;;;;;;;;;7.63;100.00;98059.22;18286845;32;19953;-57
2023/04/17 05:11:14;;;;;;;;;;;;;;;7.56;100.00;98055.84;18300763;32;19989;-57
2023/04/17 05:21:16;;;;;;;;;;;;;;;7.60;100.00;98059.69;18299840;32;19949;-57
2023/04/17 05:31:19;;;;;;;;;;;;;;;7.67;100.00;98062.25;18299763;32;19968;-57
2023/04/17 05:41:22;;;;;;;;;;;;;;;7.66;100.00;98060.62;18285496;32;20020;-57
2023/04/17 05:51:25;;;;;;;;;;;;;;;7.72;100.00;98067.72;18298906;32;19957;-57
2023/04/17 06:01:28;;;;;;;;;;;;;;;7.80;100.00;98072.72;18298580;32;20008;-57
2023/04/17 06:11:31;;;;;;;;;;;;;;;7.82;100.00;98083.22;18296916;32;19993;-57
2023/04/17 06:21:33;;;;;;;;;;;;;;;7.90;100.00;98084.72;18297243;32;19958;-57
2023/04/17 06:31:36;;;;;;;;;;;;;;;8.02;100.00;98081.97;18296739;32;19949;-56
2023/04/17 06:41:38;;;;;;;;;;;;;;;8.12;100.00;98092.91;18295863;32;19972;-57
2023/04/17 06:51:44;;;;;;;;;;;;;;;8.19;100.00;98098.16;18295699;32;19942;-57
2023/04/17 07:01:49;;;;;;;;;;;;;;;8.22;100.00;98086.88;18295800;32;20001;-57
2023/04/17 07:11:52;;;;;;;;;;;;;;;8.27;100.00;98092.34;18294842;32;19964;-57
2023/04/17 07:21:55;;;;;;;;;;;;;;;8.47;100.00;98081.94;18285541;32;19953;-56
2023/04/17 07:31:57;;;;;;;;;;;;;;;8.59;100.00;98084.53;18305615;32;20295;-57
2023/04/17 07:42:05;;;;;;;;;;;;;;;8.53;100.00;98084.72;18305254;32;19965;-57
2023/04/17 07:52:07;;;;;;;;;;;;;;;8.64;100.00;98095.37;18304893;32;20000;-57
2023/04/17 08:02:10;;;;;;;;;;;;;;;8.81;100.00;98097.22;18290393;32;19954;-56
2023/04/17 08:12:12;;;;;;;;;;;;;;;9.15;100.00;98095.28;18289090;32;19977;-57
2023/04/17 08:22:15;;;;;;;;;;;;;;;9.49;100.00;98105.13;18303258;32;19970;-57
2023/04/17 08:32:18;;;;;;;;;;;;;;;9.41;100.00;98103.69;18302566;32;20416;-57
2023/04/17 08:42:21;;;;;;;;;;;;;;;9.44;100.00;98102.38;18301898;32;19977;-57
2023/04/17 08:52:24;;;;;;;;;;;;;;;9.64;100.00;98104.50;18288111;32;19941;-57
2023/04/17 09:02:26;;;;;;;;;;;;;;;10.11;100.00;98111.19;18287218;32;20269;-57
2023/04/17 09:12:29;;;;;;;;;;;;;;;10.74;100.00;98099.81;18301162;32;20258;-57
2023/04/17 09:22:31;;;;;;;;;;;;;;;10.75;100.00;98102.25;18300217;32;20348;-57
2023/04/17 09:32:34;;;;;;;;;;;;;;;11.04;100.00;98101.88;18299846;32;19945;-57
2023/04/17 09:42:52;;;;;;;;;;;;;;;10.84;100.00;98103.41;18298245;32;19950;-57
2023/04/17 09:52:55;;;;;;;;;;;;;;;10.66;100.00;98103.81;18298663;32;19950;-57
2023/04/17 10:02:58;;;;;;;;;;;;;;;10.70;100.00;98096.00;18298321;32;19962;-57
2023/04/17 10:13:02;;;;;;;;;;;;;;;11.10;100.00;98086.50;18298345;32;19978;-57
2023/04/17 10:23:24;;;;;;;;;;;;;;;11.34;100.00;98089.59;18297280;32;20273;-57
2023/04/17 10:33:27;;;;;;;;;;;;;;;11.12;100.00;98087.84;18296847;32;20291;-57
2023/04/17 10:43:30;;;;;;;;;;;;;;;11.26;100.00;98079.28;18296303;32;19968;-57
2023/04/17 10:53:39;;;;;;;;;;;;;;;11.61;100.00;98078.59;18295664;32;19949;-57
2023/04/17 11:03:42;;;;;;;;;;;;;;;12.09;100.00;98074.91;18295558;32;19953;-57
2023/04/17 11:13:45;;;;;;;;;;;;;;;12.38;100.00;98067.03;18294979;32;19957;-57
2023/04/17 11:23:51;;;;;;;;;;;;;;;12.65;100.00;98053.19;18281210;32;19961;-57
2023/04/17 11:33:53;;;;;;;;;;;;;;;12.77;100.00;98050.19;18295138;32;19997;-57
2023/04/17 11:43:56;;;;;;;;;;;;;;;12.32;100.00;98043.72;18293746;32;19964;-57
2023/04/17 11:53:59;;;;;;;;;;;;;;;12.74;100.00;98039.88;18293372;32;19997;-57
2023/04/17 12:04:18;;;;;;;;;;;;;;;14.03;100.00;98042.00;18279614;32;19945;-57
2023/04/17 12:14:21;;;;;;;;;;;;;;;14.96;98.83;98043.91;18303722;32;19960;-57
2023/04/17 12:24:27;;;;;;;;;;;;;;;14.30;94.97;98040.69;18303409;32;19949;-57
2023/04/17 12:34:30;;;;;;;;;;;;;;;14.09;88.97;98034.59;18302727;32;19953;-57
2023/04/17 12:44:32;;;;;;;;;;;;;;;14.26;94.91;98026.06;18301813;32;20318;-57
2023/04/17 12:54:35;;;;;;;;;;;;;;;14.39;91.62;98033.56;18301557;32;19964;-57
2023/04/17 13:04:37;;;;;;;;;;;;;;;15.37;86.05;98013.44;18287174;32;19953;-57
2023/04/17 13:14:40;;;;;;;;;;;;;;;15.31;85.57;97995.56;18286039;32;19953;-57
2023/04/17 13:24:43;;;;;;;;;;;;;;;15.77;82.55;97983.97;18299328;32;19954;-57
2023/04/17 13:34:46;;;;;;;;;;;;;;;14.97;82.32;97991.88;18273412;32;20340;-57
2023/04/17 13:44:48;;;;;;;;;;;;;;;14.73;76.81;97978.25;18284980;32;20008;-57
2023/04/17 13:54:51;;;;;;;;;;;;;;;14.74;82.80;97974.44;18285125;32;19949;-57
2023/04/17 14:04:53;;;;;;;;;;;;;;;14.89;90.18;97970.72;18298205;32;19949;-57
2023/04/17 14:14:56;;;;;;;;;;;;;;;15.19;76.79;97969.53;18297762;32;20005;-57
2023/04/17 14:24:59;;;;;;;;;;;;;;;16.04;78.65;97966.91;18283280;32;20356;-57
2023/04/17 14:35:01;;;;;;;;;;;;;;;15.51;82.26;97964.47;18296167;32;20298;-57
2023/04/17 14:45:05;;;;;;;;;;;;;;;15.72;70.86;97959.53;18282030;32;20009;-58
2023/04/17 14:55:07;;;;;;;;;;;;;;;15.98;77.56;97949.03;18295864;32;20009;-58
2023/04/17 15:05:10;;;;;;;;;;;;;;;15.78;73.49;97941.16;18295240;32;20363;-57
2023/04/17 15:15:13;;;;;;;;;;;;;;;15.35;79.46;97944.81;18294974;32;19949;-58
2023/04/17 15:25:15;;;;;;;;;;;;;;;13.90;98.58;97943.69;18280473;32;19977;-58
2023/04/17 15:35:18;;;;;;;;;;;;;;;12.91;100.00;97941.03;18294656;32;19964;-58
2023/04/17 15:45:20;;;;;;;;;;;;;;;13.02;100.00;97945.34;18286759;32;19961;-57
2023/04/17 15:55:23;;;;;;;;;;;;;;;13.60;100.00;97946.66;18304652;32;19954;-57
2023/04/17 16:05:26;;;;;;;;;;;;;;;14.26;99.51;97950.69;18290310;32;19949;-57
2023/04/17 16:15:29;;;;;;;;;;;;;;;14.71;94.24;97958.69;18289746;32;19960;-58
2023/04/17 16:25:31;;;;;;;;;;;;;;;13.27;100.00;97970.72;18303034;32;19982;-58
2023/04/17 16:35:35;;;;;;;;;;;;;;;12.27;100.00;97965.13;18288805;32;19997;-58
2023/04/17 16:45:37;;;;;;;;;;;;;;;12.14;100.00;97961.88;18301917;32;19985;-58
2023/04/17 16:55:40;;;;;;;;;;;;;;;12.10;100.00;97949.97;18301643;32;20324;-58
2023/04/17 17:05:42;;;;;;;;;;;;;;;11.47;100.00;97956.41;18301641;32;19949;-57
2023/04/17 17:15:45;;;;;;;;;;;;;;;11.25;100.00;97972.06;18300553;32;19949;-57
2023/04/17 17:25:47;;;;;;;;;;;;;;;11.14;100.00;97972.06;18300167;32;19954;-58
2023/04/17 17:35:50;;;;;;;;;;;;;;;11.19;100.00;97982.88;18285939;32;19942;-58
2023/04/17 17:45:52;;;;;;;;;;;;;;;11.27;100.00;97984.25;18285033;32;19953;-57
2023/04/17 17:55:56;;;;;;;;;;;;;;;11.10;100.00;97984.50;18298719;32;19996;-58
2023/04/17 18:05:59;;;;;;;;;;;;;;;10.88;100.00;97984.69;18283646;32;19975;-57
2023/04/17 18:16:02;;;;;;;;;;;;;;;10.43;100.00;97978.75;18297783;32;19977;-58
2023/04/17 18:26:04;;;;;;;;;;;;;;;10.09;100.00;98000.66;18297217;32;19954;-57
2023/04/17 18:36:07;;;;;;;;;;;;;;;9.90;100.00;98008.34;18296798;32;19945;-57
2023/04/17 18:46:10;;;;;;;;;;;;;;;9.68;100.00;98007.62;18281010;32;20051;-57
2023/04/17 18:56:13;;;;;;;;;;;;;;;9.32;100.00;98002.66;18293575;32;19945;-57
2023/04/17 19:06:16;;;;;;;;;;;;;;;9.09;100.00;98019.94;18293114;32;19949;-58
2023/04/17 19:16:18;;;;;;;;;;;;;;;8.88;100.00;98021.56;18291646;32;19960;-58
2023/04/17 19:26:21;;;;;;;;;;;;;;;8.87;100.00;98017.25;18278185;32;20250;-58
2023/04/17 19:36:26;;;;;;;;;;;;;;;8.88;100.00;98021.56;18291541;32;19989;-58
2023/04/17 19:46:28;;;;;;;;;;;;;;;8.79;100.00;98027.37;18292716;32;20009;-58
2023/04/17 19:56:31;;;;;;;;;;;;;;;8.77;100.00;98018.75;18293289;32;19950;-57
2023/04/17 20:06:33;;;;;;;;;;;;;;;8.68;100.00;98012.16;18279515;32;19973;-57
2023/04/17 20:16:36;;;;;;;;;;;;;;;8.48;100.00;97997.34;18279267;32;20230;-57
2023/04/17 20:26:38;;;;;;;;;;;;;;;8.32;100.00;98011.63;18294123;32;19968;-58
2023/04/17 20:36:40;;;;;;;;;;;;;;;8.06;100.00;98003.13;18302867;32;20339;-57
2023/04/17 20:46:43;;;;;;;;;;;;;;;7.75;100.00;98005.31;18302053;32;19976;-58
2023/04/17 20:56:46;;;;;;;;;;;;;;;7.45;100.00;98002.91;18301614;32;19992;-58
2023/04/17 21:06:48;;;;;;;;;;;;;;;7.13;100.00;97995.34;18301825;32;20009;-57
2023/04/17 21:16:53;;;;;;;;;;;;;;;6.83;100.00;97998.25;18300901;32;20273;-57
2023/04/17 21:26:57;;;;;;;;;;;;;;;6.56;100.00;97996.84;18300133;32;19964;-57
2023/04/17 21:37:03;;;;;;;;;;;;;;;6.47;100.00;97992.91;18299145;32;20040;-57
2023/04/17 21:47:05;;;;;;;;;;;;;;;6.42;100.00;97993.59;18285705;32;20002;-58
2023/04/17 21:57:08;;;;;;;;;;;;;;;6.21;100.00;97983.47;18285239;32;20005;-57
2023/04/17 22:07:10;;;;;;;;;;;;;;;6.17;100.00;97987.69;18284985;32;20389;-57
2023/04/17 22:17:13;;;;;;;;;;;;;;;6.07;100.00;97966.75;18298115;32;19941;-57
2023/04/17 22:27:15;;;;;;;;;;;;;;;5.75;100.00;97962.50;18297368;32;20001;-57
2023/04/17 22:37:18;;;;;;;;;;;;;;;5.56;100.00;97961.81;18296984;32;19946;-57
2023/04/17 22:47:20;;;;;;;;;;;;;;;5.57;100.00;97962.62;18281883;32;20303;-57
2023/04/17 22:57:23;;;;;;;;;;;;;;;5.49;100.00;97954.91;18295790;32;19945;-57
2023/04/17 23:07:25;;;;;;;;;;;;;;;5.46;100.00;97958.03;18282249;32;19969;-57
2023/04/17 23:17:27;;;;;;;;;;;;;;;5.53;100.00;97956.06;18281930;32;20005;-57
2023/04/17 23:27:30;;;;;;;;;;;;;;;5.66;100.00;97947.81;18294913;32;20031;-57
2023/04/17 23:37:33;;;;;;;;;;;;;;;5.82;100.00;97948.19;18294652;32;19960;-57
2023/04/17 23:47:35;;;;;;;;;;;;;;;5.99;100.00;97937.59;18294191;32;19960;-57
2023/04/17 23:57:37;;;;;;;;;;;;;;;6.02;100.00;97937.94;18293920;32;19964;-57
